Time;durP1;ratioP1;P1;durP2;ratioP2;P2;SDS_P1;SDS_P2;PMS_P1;PMS_P2;Temp;Humidity;BMP_temperature;BMP_pressure;BME280_temperature;BME280_humidity;BME280_pressure;Samples;Min_cycle;Max_cycle;Signal;HPM_P1;HPM_P2
2023/12/25 00:01:29;;;;;;;27.25;15.32;;;;;;;;;;5104164;28;20028;-47
2023/12/25 00:03:56;;;;;;;26.85;13.93;;;;;;;;;;5104322;28;20020;-47
2023/12/25 00:06:22;;;;;;;22.08;11.77;;;;;;;;;;5101090;28;20020;-51
2023/12/25 00:08:51;;;;;;;20.63;11.35;;;;;;;;;;5084251;28;20020;-49
2023/12/25 00:11:18;;;;;;;15.18;9.82;;;;;;;;;;5083812;28;20252;-49
2023/12/25 00:13:46;;;;;;;19.55;9.60;;;;;;;;;;5084070;28;20066;-49
2023/12/25 00:16:13;;;;;;;20.10;9.23;;;;;;;;;;5083700;28;20048;-52
2023/12/25 00:18:40;;;;;;;17.42;9.32;;;;;;;;;;5084127;28;20051;-49
2023/12/25 00:21:06;;;;;;;17.75;9.02;;;;;;;;;;5083508;28;20029;-53
2023/12/25 00:23:33;;;;;;;16.70;8.93;;;;;;;;;;5093540;28;20031;-49
2023/12/25 00:26:00;;;;;;;13.77;8.05;;;;;;;;;;5084444;28;20210;-52
2023/12/25 00:28:26;;;;;;;18.00;7.75;;;;;;;;;;5083119;28;20121;-48
2023/12/25 00:30:53;;;;;;;15.20;7.45;;;;;;;;;;5083754;28;20063;-50
2023/12/25 00:33:19;;;;;;;15.57;7.60;;;;;;;;;;5083944;28;20201;-47
2023/12/25 00:35:46;;;;;;;29.90;16.92;;;;;;;;;;5083311;28;20016;-49
2023/12/25 00:38:13;;;;;;;442.58;409.33;;;;;;;;;;5089342;28;20020;-48
2023/12/25 00:40:39;;;;;;;267.55;245.95;;;;;;;;;;5094993;28;20016;-51
2023/12/25 00:43:06;;;;;;;263.08;240.23;;;;;;;;;;5102512;28;20122;-51
2023/12/25 00:45:32;;;;;;;191.30;174.65;;;;;;;;;;5103853;28;20031;-53
2023/12/25 00:47:59;;;;;;;146.57;133.32;;;;;;;;;;5102513;28;20334;-52
2023/12/25 00:50:25;;;;;;;111.40;101.00;;;;;;;;;;5100404;28;20302;-51
2023/12/25 00:52:52;;;;;;;92.28;83.78;;;;;;;;;;5101053;28;20044;-51
2023/12/25 00:55:19;;;;;;;81.38;73.78;;;;;;;;;;5103200;28;20047;-53
2023/12/25 00:57:45;;;;;;;61.05;55.33;;;;;;;;;;5103824;28;20055;-54
2023/12/25 01:00:12;;;;;;;55.92;50.70;;;;;;;;;;5103161;28;20012;-52
2023/12/25 01:02:39;;;;;;;44.20;39.50;;;;;;;;;;5103476;28;20170;-53
2023/12/25 01:05:06;;;;;;;39.00;35.20;;;;;;;;;;5102960;28;20028;-50
2023/12/25 01:07:32;;;;;;;31.17;27.83;;;;;;;;;;5103508;28;20028;-51
2023/12/25 01:09:59;;;;;;;27.80;24.88;;;;;;;;;;5103637;28;20016;-50
2023/12/25 01:12:25;;;;;;;24.08;20.08;;;;;;;;;;5103641;28;20032;-50
2023/12/25 01:14:52;;;;;;;24.42;21.13;;;;;;;;;;5104870;28;20044;-50
2023/12/25 01:17:19;;;;;;;25.10;17.52;;;;;;;;;;5107207;28;20204;-52
2023/12/25 01:19:45;;;;;;;20.73;14.07;;;;;;;;;;5107066;28;20016;-52
2023/12/25 01:22:12;;;;;;;17.75;12.55;;;;;;;;;;5107009;28;20079;-51
2023/12/25 01:24:39;;;;;;;18.70;11.75;;;;;;;;;;5107011;28;20027;-52
2023/12/25 01:27:05;;;;;;;17.80;9.95;;;;;;;;;;5106916;28;20044;-48
2023/12/25 01:29:32;;;;;;;15.77;9.60;;;;;;;;;;5106647;28;20115;-51
2023/12/25 01:31:58;;;;;;;15.27;8.20;;;;;;;;;;5106945;28;20016;-53
2023/12/25 01:34:25;;;;;;;12.10;8.27;;;;;;;;;;5106777;28;20020;-49
2023/12/25 01:36:51;;;;;;;12.95;7.57;;;;;;;;;;5106603;28;20016;-53
2023/12/25 01:39:18;;;;;;;10.90;7.00;;;;;;;;;;5106671;28;20016;-48
2023/12/25 01:41:45;;;;;;;15.48;7.18;;;;;;;;;;5106589;28;20034;-49
2023/12/25 01:44:12;;;;;;;9.90;6.20;;;;;;;;;;5106497;28;20028;-51
2023/12/25 01:46:39;;;;;;;10.10;5.63;;;;;;;;;;5106658;28;20022;-48
2023/12/25 01:49:07;;;;;;;8.93;5.65;;;;;;;;;;5107044;28;20092;-54
2023/12/25 01:51:34;;;;;;;9.88;5.18;;;;;;;;;;5106401;28;20016;-57
2023/12/25 01:54:02;;;;;;;9.07;5.53;;;;;;;;;;5106855;28;20024;-50
2023/12/25 01:56:29;;;;;;;11.85;6.13;;;;;;;;;;5106516;28;20182;-52
2023/12/25 01:58:55;;;;;;;13.43;6.50;;;;;;;;;;5106710;28;20061;-51
2023/12/25 02:01:22;;;;;;;14.93;7.28;;;;;;;;;;5106372;28;20058;-50
2023/12/25 02:03:49;;;;;;;12.30;7.07;;;;;;;;;;5106659;28;20052;-52
2023/12/25 02:06:16;;;;;;;9.90;7.38;;;;;;;;;;5106053;28;20026;-55
2023/12/25 02:08:43;;;;;;;10.73;7.88;;;;;;;;;;5106472;28;20091;-50
2023/12/25 02:11:09;;;;;;;12.98;7.75;;;;;;;;;;5105978;28;20030;-50
2023/12/25 02:13:36;;;;;;;16.23;8.95;;;;;;;;;;5106291;28;20031;-49
2023/12/25 02:16:03;;;;;;;16.42;8.35;;;;;;;;;;5106276;28;20206;-52
2023/12/25 02:18:29;;;;;;;15.02;8.02;;;;;;;;;;5106133;28;20020;-52
2023/12/25 02:20:56;;;;;;;10.07;7.18;;;;;;;;;;5105826;28;20198;-52
2023/12/25 02:23:24;;;;;;;10.75;6.78;;;;;;;;;;5106298;28;20031;-52
2023/12/25 02:25:57;;;;;;;10.93;6.85;;;;;;;;;;5105614;28;20075;-51
2023/12/25 02:28:24;;;;;;;18.10;6.38;;;;;;;;;;5105676;28;20032;-51
2023/12/25 02:30:51;;;;;;;14.10;5.97;;;;;;;;;;5105952;28;20073;-53
2023/12/25 02:33:18;;;;;;;13.82;5.63;;;;;;;;;;5106130;28;20028;-47
2023/12/25 02:35:44;;;;;;;10.07;5.20;;;;;;;;;;5105663;28;20212;-52
2023/12/25 02:38:11;;;;;;;12.98;4.65;;;;;;;;;;5105821;28;20027;-53
2023/12/25 02:40:41;;;;;;;8.68;4.60;;;;;;;;;;5105677;28;20012;-52
2023/12/25 02:43:08;;;;;;;8.73;4.60;;;;;;;;;;5105560;28;20028;-50
2023/12/25 02:45:34;;;;;;;8.60;4.55;;;;;;;;;;5105334;28;20079;-49
2023/12/25 02:48:01;;;;;;;11.00;5.47;;;;;;;;;;5105929;28;20023;-48
2023/12/25 02:50:28;;;;;;;13.05;5.82;;;;;;;;;;5105221;28;20328;-48
2023/12/25 02:52:55;;;;;;;14.35;6.05;;;;;;;;;;5105530;28;20028;-50
2023/12/25 02:55:22;;;;;;;15.40;6.45;;;;;;;;;;5105166;28;20027;-54
2023/12/25 02:57:49;;;;;;;11.98;7.43;;;;;;;;;;5105568;28;20031;-48
2023/12/25 03:00:16;;;;;;;22.58;11.18;;;;;;;;;;5105122;28;20023;-50
2023/12/25 03:02:42;;;;;;;23.83;11.88;;;;;;;;;;5105291;28;20035;-49
2023/12/25 03:05:09;;;;;;;18.58;10.65;;;;;;;;;;5105056;28;20016;-59
2023/12/25 03:07:35;;;;;;;21.70;11.32;;;;;;;;;;5105108;28;20043;-50
2023/12/25 03:10:02;;;;;;;20.90;11.88;;;;;;;;;;5105045;28;20027;-51
2023/12/25 03:12:29;;;;;;;14.73;10.90;;;;;;;;;;5104927;28;20028;-57
2023/12/25 03:14:56;;;;;;;14.40;9.85;;;;;;;;;;5104722;28;20020;-50
2023/12/25 03:17:22;;;;;;;20.08;9.57;;;;;;;;;;5104927;28;20020;-52
2023/12/25 03:19:49;;;;;;;25.27;17.65;;;;;;;;;;5104762;28;20062;-49
2023/12/25 03:22:15;;;;;;;17.17;12.75;;;;;;;;;;5104593;28;20091;-49
2023/12/25 03:24:42;;;;;;;13.38;9.52;;;;;;;;;;5104766;28;20024;-52
2023/12/25 03:27:09;;;;;;;14.07;8.63;;;;;;;;;;5104586;28;20047;-53
2023/12/25 03:29:36;;;;;;;12.93;8.20;;;;;;;;;;5104265;28;20052;-58
2023/12/25 03:32:02;;;;;;;14.35;8.07;;;;;;;;;;5104801;28;20185;-52
2023/12/25 03:34:29;;;;;;;13.15;7.32;;;;;;;;;;5104435;28;20027;-49
2023/12/25 03:36:56;;;;;;;11.40;6.82;;;;;;;;;;5103815;28;20020;-49
2023/12/25 03:39:23;;;;;;;11.52;6.28;;;;;;;;;;5104367;28;20058;-48
2023/12/25 03:41:50;;;;;;;9.40;5.43;;;;;;;;;;5104558;28;20020;-53
2023/12/25 03:44:17;;;;;;;10.80;5.97;;;;;;;;;;5104246;28;20023;-49
2023/12/25 03:46:43;;;;;;;15.20;7.38;;;;;;;;;;5104336;28;20441;-56
2023/12/25 03:49:10;;;;;;;13.02;8.05;;;;;;;;;;5104549;28;20032;-53
2023/12/25 03:51:37;;;;;;;15.10;8.80;;;;;;;;;;5104171;28;20023;-50
2023/12/25 03:54:03;;;;;;;17.73;9.95;;;;;;;;;;5104709;28;20092;-49
2023/12/25 03:56:30;;;;;;;18.25;10.95;;;;;;;;;;5104300;28;20022;-50
2023/12/25 03:58:57;;;;;;;20.85;10.88;;;;;;;;;;5104496;28;20084;-50
2023/12/25 04:01:23;;;;;;;16.65;10.30;;;;;;;;;;5104142;28;20016;-50
2023/12/25 04:03:50;;;;;;;15.35;9.07;;;;;;;;;;5104569;28;20375;-49
2023/12/25 04:06:26;;;;;;;15.25;8.13;;;;;;;;;;5103905;28;20020;-50
2023/12/25 04:08:53;;;;;;;14.35;7.78;;;;;;;;;;5104546;28;20308;-55
2023/12/25 04:11:23;;;;;;;10.02;6.88;;;;;;;;;;5104038;28;20328;-50
2023/12/25 04:13:55;;;;;;;10.63;6.97;;;;;;;;;;5104360;28;20032;-53
2023/12/25 04:16:23;;;;;;;14.50;7.40;;;;;;;;;;5104315;28;20016;-52
2023/12/25 04:18:49;;;;;;;11.75;6.88;;;;;;;;;;5104278;28;20083;-48
2023/12/25 04:21:23;;;;;;;12.85;7.90;;;;;;;;;;5103983;28;20020;-51
2023/12/25 04:23:53;;;;;;;19.35;8.43;;;;;;;;;;5104452;28;20303;-56
2023/12/25 04:26:20;;;;;;;16.92;7.68;;;;;;;;;;5103714;28;20053;-53
2023/12/25 04:28:47;;;;;;;10.98;6.75;;;;;;;;;;5104091;28;20358;-49
2023/12/25 04:31:14;;;;;;;9.45;6.13;;;;;;;;;;5103971;28;20027;-52
2023/12/25 04:33:41;;;;;;;13.00;6.28;;;;;;;;;;5104185;28;20028;-56
2023/12/25 04:36:08;;;;;;;10.10;6.18;;;;;;;;;;5103733;28;20020;-50
2023/12/25 04:38:35;;;;;;;7.90;5.60;;;;;;;;;;5104162;28;20023;-51
2023/12/25 04:41:02;;;;;;;17.10;7.07;;;;;;;;;;5103652;28;20016;-52
2023/12/25 04:43:28;;;;;;;12.07;7.40;;;;;;;;;;5103653;28;20064;-50
2023/12/25 04:45:55;;;;;;;15.00;6.60;;;;;;;;;;5103798;28;20016;-50
2023/12/25 04:48:22;;;;;;;9.40;5.95;;;;;;;;;;5103922;28;20022;-51
2023/12/25 04:50:48;;;;;;;9.88;5.88;;;;;;;;;;5107126;28;20028;-51
2023/12/25 04:53:15;;;;;;;12.02;6.40;;;;;;;;;;5108054;28;20016;-48
2023/12/25 04:55:42;;;;;;;10.85;6.90;;;;;;;;;;5107368;28;20044;-52
2023/12/25 04:58:08;;;;;;;8.85;6.55;;;;;;;;;;5107941;28;20023;-47
2023/12/25 05:00:35;;;;;;;9.32;6.18;;;;;;;;;;5107572;28;20377;-50
2023/12/25 05:03:03;;;;;;;13.55;6.63;;;;;;;;;;5107575;28;20020;-50
2023/12/25 05:05:30;;;;;;;8.93;5.57;;;;;;;;;;5107370;28;20031;-52
2023/12/25 05:07:56;;;;;;;10.10;6.07;;;;;;;;;;5107613;28;20028;-55
2023/12/25 05:10:23;;;;;;;8.80;5.65;;;;;;;;;;5107368;28;20024;-49
2023/12/25 05:12:50;;;;;;;13.38;6.72;;;;;;;;;;5107622;28;20073;-51
2023/12/25 05:15:16;;;;;;;12.25;7.05;;;;;;;;;;5107261;28;20077;-52
2023/12/25 05:17:43;;;;;;;12.85;7.18;;;;;;;;;;5107412;28;20016;-52
2023/12/25 05:20:10;;;;;;;12.05;7.88;;;;;;;;;;5107013;28;20025;-51
2023/12/25 05:22:37;;;;;;;10.95;7.13;;;;;;;;;;5107272;28;20019;-50
2023/12/25 05:25:03;;;;;;;11.95;7.68;;;;;;;;;;5107153;28;20024;-52
2023/12/25 05:27:30;;;;;;;9.02;6.30;;;;;;;;;;5106935;28;20062;-53
2023/12/25 05:29:57;;;;;;;12.60;6.95;;;;;;;;;;5106971;28;20391;-50
2023/12/25 05:32:24;;;;;;;11.93;6.28;;;;;;;;;;5107100;28;20062;-51
2023/12/25 05:34:50;;;;;;;10.75;6.38;;;;;;;;;;5106678;28;20027;-53
2023/12/25 05:37:17;;;;;;;9.13;5.75;;;;;;;;;;5106960;28;20320;-52
2023/12/25 05:39:44;;;;;;;10.02;5.82;;;;;;;;;;5106825;28;20044;-49
2023/12/25 05:42:10;;;;;;;11.88;6.30;;;;;;;;;;5106639;28;20051;-52
2023/12/25 05:44:37;;;;;;;15.82;6.45;;;;;;;;;;5106695;28;20024;-51
2023/12/25 05:47:04;;;;;;;10.30;5.55;;;;;;;;;;5106767;28;20120;-48
2023/12/25 05:49:30;;;;;;;14.43;5.78;;;;;;;;;;5106503;28;20065;-48
2023/12/25 05:51:57;;;;;;;12.00;5.50;;;;;;;;;;5106540;28;20016;-51
2023/12/25 05:54:24;;;;;;;11.68;5.10;;;;;;;;;;5106452;28;20035;-53
2023/12/25 05:56:50;;;;;;;92.10;7.32;;;;;;;;;;5106240;28;20016;-52
2023/12/25 05:59:17;;;;;;;26.85;5.28;;;;;;;;;;5106477;28;20020;-51
2023/12/25 06:01:44;;;;;;;14.52;5.30;;;;;;;;;;5105904;28;20040;-51
2023/12/25 06:04:11;;;;;;;9.05;4.72;;;;;;;;;;5106275;28;20028;-52
2023/12/25 06:06:38;;;;;;;14.32;4.38;;;;;;;;;;5106259;28;20020;-52
2023/12/25 06:09:04;;;;;;;11.05;4.72;;;;;;;;;;5106739;28;20016;-55
2023/12/25 06:11:31;;;;;;;18.00;3.65;;;;;;;;;;5106062;28;20024;-61
2023/12/25 06:13:58;;;;;;;25.73;4.65;;;;;;;;;;5106643;28;20027;-56
2023/12/25 06:16:24;;;;;;;128.50;6.72;;;;;;;;;;5106079;28;20020;-53
2023/12/25 06:18:51;;;;;;;5.10;3.03;;;;;;;;;;5106452;28;20046;-53
2023/12/25 06:21:17;;;;;;;11.98;3.38;;;;;;;;;;5106021;28;20024;-56
2023/12/25 06:23:44;;;;;;;58.70;5.85;;;;;;;;;;5106314;28;20070;-46
2023/12/25 06:26:10;;;;;;;16.13;4.82;;;;;;;;;;5105884;28;20096;-45
2023/12/25 06:28:38;;;;;;;12.57;4.75;;;;;;;;;;5105927;28;20080;-44
2023/12/25 06:31:04;;;;;;;14.57;5.22;;;;;;;;;;5105821;28;20024;-44
2023/12/25 06:33:33;;;;;;;12.00;5.18;;;;;;;;;;5106076;28;20231;-44
2023/12/25 06:35:59;;;;;;;12.15;4.63;;;;;;;;;;5105825;28;20028;-42
2023/12/25 06:38:26;;;;;;;11.68;5.05;;;;;;;;;;5106004;28;20031;-41
2023/12/25 06:40:53;;;;;;;11.45;5.38;;;;;;;;;;5105470;28;20027;-45
2023/12/25 06:43:19;;;;;;;15.23;5.00;;;;;;;;;;5105779;28;20035;-49
2023/12/25 06:45:46;;;;;;;11.27;5.25;;;;;;;;;;5105446;28;20016;-46
2023/12/25 06:48:12;;;;;;;13.35;5.50;;;;;;;;;;5105665;28;20039;-44
2023/12/25 06:50:40;;;;;;;11.20;5.25;;;;;;;;;;5105228;28;20050;-41
2023/12/25 06:53:08;;;;;;;11.82;4.75;;;;;;;;;;5105543;28;20028;-45
2023/12/25 06:55:34;;;;;;;9.38;4.95;;;;;;;;;;5105205;28;20047;-51
2023/12/25 06:58:01;;;;;;;9.10;4.97;;;;;;;;;;5105356;28;20019;-43
2023/12/25 07:00:28;;;;;;;11.10;4.95;;;;;;;;;;5105237;28;20024;-42
2023/12/25 07:02:54;;;;;;;8.25;4.88;;;;;;;;;;5105469;28;20130;-42
2023/12/25 07:05:22;;;;;;;11.35;5.00;;;;;;;;;;5104991;28;20024;-45
2023/12/25 07:07:49;;;;;;;10.45;4.97;;;;;;;;;;5105206;28;20027;-43
2023/12/25 07:10:16;;;;;;;15.68;5.10;;;;;;;;;;5104365;28;20024;-45
2023/12/25 07:12:43;;;;;;;11.55;5.32;;;;;;;;;;5103539;28;20031;-41
2023/12/25 07:15:09;;;;;;;14.35;5.50;;;;;;;;;;5093476;28;20024;-47
2023/12/25 07:17:36;;;;;;;13.73;6.05;;;;;;;;;;5093491;28;20029;-40
2023/12/25 07:20:03;;;;;;;13.82;6.55;;;;;;;;;;5102012;28;20087;-41
2023/12/25 07:22:29;;;;;;;14.85;6.53;;;;;;;;;;5104780;28;20047;-44
2023/12/25 07:24:56;;;;;;;14.88;6.72;;;;;;;;;;5104333;28;20027;-41
2023/12/25 07:27:23;;;;;;;13.57;6.22;;;;;;;;;;5102970;28;20354;-41
2023/12/25 07:29:49;;;;;;;12.43;6.00;;;;;;;;;;5102998;28;20051;-44
2023/12/25 07:32:16;;;;;;;11.30;5.63;;;;;;;;;;5104076;28;20360;-41
2023/12/25 07:34:42;;;;;;;10.20;5.20;;;;;;;;;;5104176;28;20024;-47
2023/12/25 07:37:09;;;;;;;9.50;5.25;;;;;;;;;;5104614;28;20020;-40
2023/12/25 07:39:36;;;;;;;10.18;4.90;;;;;;;;;;5104546;28;20020;-41
2023/12/25 07:42:02;;;;;;;9.68;4.78;;;;;;;;;;5104394;28;20058;-47
2023/12/25 07:44:29;;;;;;;13.93;4.97;;;;;;;;;;5104480;28;20024;-46
2023/12/25 07:46:55;;;;;;;13.02;5.07;;;;;;;;;;5104392;28;20023;-44
2023/12/25 07:49:22;;;;;;;12.18;4.80;;;;;;;;;;5104278;28;20048;-49
2023/12/25 07:51:48;;;;;;;12.23;4.85;;;;;;;;;;5103665;28;20028;-41
2023/12/25 07:54:15;;;;;;;10.70;4.45;;;;;;;;;;5104232;28;20303;-43
2023/12/25 07:56:42;;;;;;;9.23;4.60;;;;;;;;;;5104184;28;20083;-43
2023/12/25 07:59:08;;;;;;;12.30;4.90;;;;;;;;;;5104732;28;20020;-48
2023/12/25 08:01:35;;;;;;;7.10;3.95;;;;;;;;;;5104125;28;20020;-43
2023/12/25 08:04:02;;;;;;;13.73;4.38;;;;;;;;;;5104017;28;20016;-46
2023/12/25 08:06:29;;;;;;;8.90;4.55;;;;;;;;;;5104584;28;20039;-41
2023/12/25 08:08:55;;;;;;;11.15;4.28;;;;;;;;;;5104644;28;20028;-45
2023/12/25 08:11:22;;;;;;;8.52;4.05;;;;;;;;;;5104145;28;20031;-44
2023/12/25 08:13:49;;;;;;;9.32;4.20;;;;;;;;;;5104394;28;20079;-51
2023/12/25 08:16:15;;;;;;;9.18;4.03;;;;;;;;;;5104070;28;20024;-49
2023/12/25 08:18:42;;;;;;;6.65;3.85;;;;;;;;;;5104453;28;20023;-50
2023/12/25 08:21:08;;;;;;;10.52;4.25;;;;;;;;;;5103872;28;20020;-41
2023/12/25 08:23:35;;;;;;;9.05;3.83;;;;;;;;;;5105875;28;20020;-41
2023/12/25 08:26:02;;;;;;;9.77;4.30;;;;;;;;;;5108443;28;20112;-44
2023/12/25 08:28:28;;;;;;;10.18;3.97;;;;;;;;;;5108279;28;20335;-47
2023/12/25 08:30:55;;;;;;;10.10;4.30;;;;;;;;;;5108105;28;20028;-44
2023/12/25 08:33:21;;;;;;;8.73;4.05;;;;;;;;;;5108477;28;20028;-47
2023/12/25 08:35:48;;;;;;;9.80;4.28;;;;;;;;;;5107818;28;20049;-42
2023/12/25 08:38:14;;;;;;;9.80;4.20;;;;;;;;;;5108399;28;20028;-47
2023/12/25 08:40:41;;;;;;;10.73;4.22;;;;;;;;;;5107970;28;20027;-41
2023/12/25 08:43:07;;;;;;;8.57;4.22;;;;;;;;;;5108054;28;20154;-40
2023/12/25 08:45:34;;;;;;;11.20;4.15;;;;;;;;;;5107939;28;20299;-46
2023/12/25 08:48:01;;;;;;;8.98;4.15;;;;;;;;;;5108009;28;20036;-42
2023/12/25 08:50:27;;;;;;;15.10;4.90;;;;;;;;;;5106513;28;20193;-46
2023/12/25 08:52:54;;;;;;;9.40;4.10;;;;;;;;;;5107932;28;20030;-43
2023/12/25 08:55:20;;;;;;;11.82;4.50;;;;;;;;;;5107918;28;20058;-46
2023/12/25 08:57:47;;;;;;;9.80;4.47;;;;;;;;;;5107651;28;20031;-42
2023/12/25 09:00:14;;;;;;;10.45;4.70;;;;;;;;;;5107588;28;20019;-42
2023/12/25 09:02:40;;;;;;;8.75;4.32;;;;;;;;;;5107692;28;20031;-45
2023/12/25 09:05:07;;;;;;;12.35;5.15;;;;;;;;;;5107376;28;20024;-49
2023/12/25 09:07:33;;;;;;;14.07;4.95;;;;;;;;;;5107559;28;20095;-51
2023/12/25 09:10:00;;;;;;;11.10;4.80;;;;;;;;;;5107524;28;20023;-50
2023/12/25 09:12:27;;;;;;;11.45;4.57;;;;;;;;;;5107390;28;20028;-50
2023/12/25 09:14:53;;;;;;;7.95;4.47;;;;;;;;;;5107572;28;20031;-50
2023/12/25 09:17:20;;;;;;;12.27;4.22;;;;;;;;;;5107312;28;20043;-51
2023/12/25 09:19:48;;;;;;;9.18;4.60;;;;;;;;;;5107238;28;20016;-48
2023/12/25 09:22:14;;;;;;;9.23;4.07;;;;;;;;;;5107132;28;20024;-48
2023/12/25 09:24:44;;;;;;;10.07;4.03;;;;;;;;;;5107146;28;20031;-41
2023/12/25 09:27:11;;;;;;;9.27;4.18;;;;;;;;;;5107202;28;20023;-47
2023/12/25 09:29:37;;;;;;;7.68;4.28;;;;;;;;;;5106852;28;20048;-47
2023/12/25 09:32:04;;;;;;;11.40;4.57;;;;;;;;;;5106903;28;20087;-47
2023/12/25 09:34:31;;;;;;;11.38;4.70;;;;;;;;;;5106194;28;20054;-44
2023/12/25 09:36:58;;;;;;;11.27;4.43;;;;;;;;;;5106480;28;20031;-44
2023/12/25 09:39:25;;;;;;;9.27;4.25;;;;;;;;;;5106742;28;20062;-46
2023/12/25 09:41:52;;;;;;;8.50;4.20;;;;;;;;;;5106755;28;20019;-47
2023/12/25 09:44:19;;;;;;;10.95;4.00;;;;;;;;;;5106557;28;20068;-46
2023/12/25 09:46:45;;;;;;;7.25;4.13;;;;;;;;;;5106599;28;20016;-41
2023/12/25 09:49:12;;;;;;;12.38;4.30;;;;;;;;;;5106812;28;20019;-45
2023/12/25 09:51:38;;;;;;;10.18;3.90;;;;;;;;;;5106519;28;20332;-45
2023/12/25 09:54:05;;;;;;;10.88;4.05;;;;;;;;;;5107073;28;20091;-44
2023/12/25 09:56:35;;;;;;;10.75;4.30;;;;;;;;;;5106612;28;20091;-47
2023/12/25 09:59:03;;;;;;;10.73;4.15;;;;;;;;;;5106793;28;20058;-45
2023/12/25 10:01:30;;;;;;;10.52;4.20;;;;;;;;;;5106382;28;20035;-51
2023/12/25 10:03:57;;;;;;;11.10;4.35;;;;;;;;;;5106802;28;20031;-51
2023/12/25 10:06:23;;;;;;;9.20;4.20;;;;;;;;;;5106282;28;20020;-44
2023/12/25 10:08:50;;;;;;;8.38;4.55;;;;;;;;;;5106793;28;20073;-44
2023/12/25 10:11:17;;;;;;;10.00;4.35;;;;;;;;;;5106561;28;20216;-47
2023/12/25 10:13:44;;;;;;;9.07;4.38;;;;;;;;;;5106487;28;20260;-43
2023/12/25 10:16:11;;;;;;;11.30;4.60;;;;;;;;;;5106213;28;20023;-48
2023/12/25 10:18:38;;;;;;;11.13;4.95;;;;;;;;;;5106464;28;20024;-43
2023/12/25 10:21:05;;;;;;;12.18;4.78;;;;;;;;;;5105974;28;20024;-48
2023/12/25 10:23:33;;;;;;;14.43;4.80;;;;;;;;;;5106335;28;20028;-45
2023/12/25 10:26:00;;;;;;;10.88;4.70;;;;;;;;;;5105980;28;20073;-42
2023/12/25 10:28:27;;;;;;;9.40;4.97;;;;;;;;;;5105955;28;20028;-42
2023/12/25 10:31:01;;;;;;;12.68;4.80;;;;;;;;;;5105789;28;20031;-42
2023/12/25 10:33:27;;;;;;;11.00;4.70;;;;;;;;;;5106183;28;20024;-46
2023/12/25 10:36:10;;;;;;;13.65;5.13;;;;;;;;;;5105615;28;20031;-41
2023/12/25 10:38:36;;;;;;;;;;;;;;;;;;5106542;28;20024;-48
2023/12/25 10:41:21;;;;;;;21.77;5.35;;;;;;;;;;5105500;28;19904;-46
2023/12/25 10:44:06;;;;;;;16.67;5.03;;;;;;;;;;5106036;28;20096;-44
2023/12/25 10:46:37;;;;;;;17.50;5.00;;;;;;;;;;5105513;28;20027;-44
2023/12/25 10:49:04;;;;;;;13.30;4.65;;;;;;;;;;5101961;28;20052;-41
2023/12/25 10:51:35;;;;;;;21.58;5.55;;;;;;;;;;5105591;28;20030;-49
2023/12/25 10:54:03;;;;;;;31.35;6.80;;;;;;;;;;5105927;28;20028;-41
2023/12/25 10:56:33;;;;;;;24.77;5.65;;;;;;;;;;5105484;28;20068;-42
2023/12/25 10:59:22;;;;;;;27.33;5.78;;;;;;;;;;5105578;28;20047;-44
2023/12/25 11:01:49;;;;;;;27.63;5.50;;;;;;;;;;5097283;28;20024;-40
2023/12/25 11:04:17;;;;;;;35.95;6.45;;;;;;;;;;5104099;28;20058;-40
2023/12/25 11:06:45;;;;;;;41.67;7.75;;;;;;;;;;5105043;28;20043;-43
2023/12/25 11:09:17;;;;;;;83.00;9.25;;;;;;;;;;5105087;28;20306;-42
2023/12/25 11:11:47;;;;;;;74.30;10.57;;;;;;;;;;5105019;28;20028;-46
2023/12/25 11:14:13;;;;;;;103.45;12.70;;;;;;;;;;5099808;28;20020;-51
2023/12/25 11:16:40;;;;;;;78.95;11.38;;;;;;;;;;5098113;28;20016;-46
2023/12/25 11:19:07;;;;;;;68.85;9.25;;;;;;;;;;5105353;28;20023;-48
2023/12/25 11:21:34;;;;;;;34.15;7.20;;;;;;;;;;5104867;28;20083;-42
2023/12/25 11:24:03;;;;;;;42.95;7.47;;;;;;;;;;5105331;28;20028;-45
2023/12/25 11:26:31;;;;;;;26.88;6.57;;;;;;;;;;5104714;28;20022;-43
2023/12/25 11:29:08;;;;;;;26.45;6.53;;;;;;;;;;5105022;28;20067;-44
2023/12/25 11:31:43;;;;;;;29.38;6.85;;;;;;;;;;5104506;28;20016;-40
2023/12/25 11:34:22;;;;;;;27.35;5.82;;;;;;;;;;5104487;28;20032;-44
2023/12/25 11:36:57;;;;;;;24.55;6.18;;;;;;;;;;5104349;28;20032;-44
2023/12/25 11:39:25;;;;;;;23.77;5.97;;;;;;;;;;5104547;28;20027;-44
2023/12/25 11:41:51;;;;;;;16.20;5.38;;;;;;;;;;5104613;28;20020;-42
2023/12/25 11:44:33;;;;;;;18.02;6.68;;;;;;;;;;5104553;28;20023;-45
2023/12/25 11:47:02;;;;;;;19.35;5.90;;;;;;;;;;5104536;28;20377;-42
2023/12/25 11:49:29;;;;;;;22.25;6.40;;;;;;;;;;5104269;28;20032;-42
2023/12/25 11:51:55;;;;;;;18.75;6.10;;;;;;;;;;5104498;28;20043;-47
2023/12/25 11:54:29;;;;;;;17.58;6.07;;;;;;;;;;5104351;28;20028;-46
2023/12/25 11:56:57;;;;;;;10.65;4.80;;;;;;;;;;5104145;28;20075;-40
2023/12/25 11:59:24;;;;;;;13.27;5.55;;;;;;;;;;5103957;28;20015;-48
2023/12/25 12:01:50;;;;;;;13.77;5.05;;;;;;;;;;5104298;28;20016;-44
2023/12/25 12:04:18;;;;;;;14.73;5.40;;;;;;;;;;5104090;28;20020;-43
2023/12/25 12:06:44;;;;;;;9.60;5.78;;;;;;;;;;5104199;28;20079;-41
2023/12/25 12:09:11;;;;;;;11.48;5.05;;;;;;;;;;5104262;28;20028;-43
2023/12/25 12:11:38;;;;;;;10.73;4.80;;;;;;;;;;5103995;28;20016;-42
2023/12/25 12:14:04;;;;;;;8.85;5.05;;;;;;;;;;5104564;28;20123;-44
2023/12/25 12:16:31;;;;;;;14.25;5.15;;;;;;;;;;5103982;28;20085;-52
2023/12/25 12:18:57;;;;;;;11.05;4.93;;;;;;;;;;5103889;28;20027;-48
2023/12/25 12:21:24;;;;;;;11.90;5.45;;;;;;;;;;5104163;28;20016;-42
2023/12/25 12:23:51;;;;;;;10.98;5.40;;;;;;;;;;5104538;28;20023;-44
2023/12/25 12:26:17;;;;;;;14.52;5.32;;;;;;;;;;5103850;28;20035;-46
2023/12/25 12:28:44;;;;;;;10.93;5.00;;;;;;;;;;5104194;28;20073;-46
2023/12/25 12:31:11;;;;;;;10.00;4.97;;;;;;;;;;5104013;28;20024;-45
2023/12/25 12:33:38;;;;;;;9.32;4.70;;;;;;;;;;5104322;28;20295;-48
2023/12/25 12:36:05;;;;;;;10.85;5.20;;;;;;;;;;5103954;28;20212;-46
2023/12/25 12:38:31;;;;;;;9.13;5.07;;;;;;;;;;5104296;28;20047;-41
2023/12/25 12:40:58;;;;;;;12.60;4.97;;;;;;;;;;5103650;28;20012;-43
2023/12/25 12:43:25;;;;;;;8.90;4.93;;;;;;;;;;5104167;28;20033;-41
2023/12/25 12:45:51;;;;;;;9.52;5.10;;;;;;;;;;5103736;28;20091;-44
2023/12/25 12:48:18;;;;;;;11.52;5.20;;;;;;;;;;5104069;28;20312;-48
2023/12/25 12:50:45;;;;;;;12.18;5.45;;;;;;;;;;5103722;28;20024;-42
2023/12/25 12:53:12;;;;;;;9.70;5.07;;;;;;;;;;5104145;28;20031;-42
2023/12/25 12:55:38;;;;;;;9.85;5.00;;;;;;;;;;5096482;28;20030;-49
2023/12/25 12:58:05;;;;;;;8.80;5.35;;;;;;;;;;5091310;28;20317;-47
2023/12/25 13:00:32;;;;;;;9.75;5.43;;;;;;;;;;5083556;28;20308;-39
2023/12/25 13:02:58;;;;;;;10.95;5.60;;;;;;;;;;5102824;28;20061;-43
2023/12/25 13:05:25;;;;;;;8.60;5.15;;;;;;;;;;5103756;28;20185;-45
2023/12/25 13:07:52;;;;;;;9.18;5.22;;;;;;;;;;5103646;28;20028;-39
2023/12/25 13:10:19;;;;;;;11.93;5.90;;;;;;;;;;5104358;28;20378;-46
2023/12/25 13:12:46;;;;;;;10.32;4.57;;;;;;;;;;5105675;28;20273;-45
2023/12/25 13:15:12;;;;;;;9.52;4.90;;;;;;;;;;5107353;28;20023;-48
2023/12/25 13:17:39;;;;;;;10.65;5.32;;;;;;;;;;5099932;28;20308;-43
2023/12/25 13:20:08;;;;;;;13.95;5.65;;;;;;;;;;5099632;28;20249;-41
2023/12/25 13:22:35;;;;;;;10.27;5.55;;;;;;;;;;5101597;28;20028;-40
2023/12/25 13:25:03;;;;;;;13.75;5.35;;;;;;;;;;5107087;28;20020;-55
2023/12/25 13:27:29;;;;;;;10.18;4.40;;;;;;;;;;5106984;28;20407;-43
2023/12/25 13:29:56;;;;;;;9.63;4.55;;;;;;;;;;5106906;28;20279;-45
2023/12/25 13:32:22;;;;;;;9.85;4.75;;;;;;;;;;5107115;28;20051;-47
2023/12/25 13:34:49;;;;;;;9.73;4.55;;;;;;;;;;5106495;28;20362;-45
2023/12/25 13:37:15;;;;;;;11.90;4.63;;;;;;;;;;5094007;28;20029;-49
2023/12/25 13:39:42;;;;;;;9.43;4.70;;;;;;;;;;5106726;28;20016;-44
2023/12/25 13:42:09;;;;;;;6.15;4.05;;;;;;;;;;5105892;28;20083;-48
2023/12/25 13:44:37;;;;;;;8.52;4.55;;;;;;;;;;5106803;28;20242;-45
2023/12/25 13:47:04;;;;;;;10.85;4.82;;;;;;;;;;5106810;28;20020;-46
2023/12/25 13:49:31;;;;;;;11.02;4.70;;;;;;;;;;5106093;28;20047;-46
2023/12/25 13:51:58;;;;;;;9.15;4.93;;;;;;;;;;5106405;28;20024;-42
2023/12/25 13:54:24;;;;;;;11.93;5.03;;;;;;;;;;5106443;28;20020;-45
2023/12/25 13:56:51;;;;;;;19.55;5.25;;;;;;;;;;5105951;28;20204;-51
2023/12/25 13:59:18;;;;;;;14.02;5.70;;;;;;;;;;5106580;28;20024;-53
2023/12/25 14:01:45;;;;;;;14.80;5.70;;;;;;;;;;5103731;28;20016;-45
2023/12/25 14:04:11;;;;;;;11.35;5.63;;;;;;;;;;5105310;28;20247;-48
2023/12/25 14:06:38;;;;;;;14.63;5.28;;;;;;;;;;5106436;28;20027;-46
2023/12/25 14:09:04;;;;;;;20.00;5.30;;;;;;;;;;5105610;28;20205;-43
2023/12/25 14:11:32;;;;;;;14.93;5.05;;;;;;;;;;5101743;28;20024;-54
2023/12/25 14:13:58;;;;;;;16.92;5.53;;;;;;;;;;5091051;28;20343;-46
2023/12/25 14:16:25;;;;;;;12.90;4.88;;;;;;;;;;5102001;28;20036;-51
2023/12/25 14:18:51;;;;;;;11.43;5.07;;;;;;;;;;5105447;28;20239;-49
2023/12/25 14:21:18;;;;;;;15.93;5.80;;;;;;;;;;5104083;28;20019;-48
2023/12/25 14:23:44;;;;;;;16.00;5.85;;;;;;;;;;5105549;28;20028;-46
2023/12/25 14:26:11;;;;;;;19.77;5.18;;;;;;;;;;5104021;28;20028;-48
2023/12/25 14:28:38;;;;;;;11.65;4.93;;;;;;;;;;5104501;28;20024;-47
2023/12/25 14:31:04;;;;;;;13.43;5.03;;;;;;;;;;5104108;28;20047;-44